sensor_id;sensor_type;location;lat;lon;timestamp;P1;durP1;ratioP1;P2;durP2;ratioP2
43552;SDS011;29153;42.696;23.218;2022-12-13T00:01:34;12.05;;;4.78;;
43552;SDS011;29153;42.696;23.218;2022-12-13T00:04:04;8.05;;;3.85;;
43552;SDS011;29153;42.696;23.218;2022-12-13T00:06:32;10.30;;;4.80;;
43552;SDS011;29153;42.696;23.218;2022-12-13T00:09:02;10.72;;;4.65;;
43552;SDS011;29153;42.696;23.218;2022-12-13T00:11:30;12.23;;;3.92;;
43552;SDS011;29153;42.696;23.218;2022-12-13T00:13:58;8.18;;;3.65;;
43552;SDS011;29153;42.696;23.218;2022-12-13T00:16:26;8.40;;;3.20;;
43552;SDS011;29153;42.696;23.218;2022-12-13T00:18:55;7.92;;;3.25;;
43552;SDS011;29153;42.696;23.218;2022-12-13T00:21:26;9.23;;;3.52;;
43552;SDS011;29153;42.696;23.218;2022-12-13T00:23:56;7.80;;;3.50;;
43552;SDS011;29153;42.696;23.218;2022-12-13T00:26:26;9.43;;;3.33;;
43552;SDS011;29153;42.696;23.218;2022-12-13T00:28:57;7.17;;;3.85;;
43552;SDS011;29153;42.696;23.218;2022-12-13T00:31:25;8.85;;;4.47;;
43552;SDS011;29153;42.696;23.218;2022-12-13T00:33:55;8.20;;;3.42;;
43552;SDS011;29153;42.696;23.218;2022-12-13T00:36:22;8.05;;;3.87;;
43552;SDS011;29153;42.696;23.218;2022-12-13T00:38:50;7.00;;;3.12;;
43552;SDS011;29153;42.696;23.218;2022-12-13T00:41:19;6.12;;;3.00;;
43552;SDS011;29153;42.696;23.218;2022-12-13T00:43:47;7.72;;;3.25;;
43552;SDS011;29153;42.696;23.218;2022-12-13T00:46:15;7.50;;;2.85;;
43552;SDS011;29153;42.696;23.218;2022-12-13T00:48:49;6.90;;;2.27;;
43552;SDS011;29153;42.696;23.218;2022-12-13T00:51:19;10.45;;;3.60;;
43552;SDS011;29153;42.696;23.218;2022-12-13T00:56:20;8.20;;;3.25;;
43552;SDS011;29153;42.696;23.218;2022-12-13T00:58:46;8.60;;;4.08;;
43552;SDS011;29153;42.696;23.218;2022-12-13T01:01:15;8.05;;;3.85;;
43552;SDS011;29153;42.696;23.218;2022-12-13T01:03:44;10.00;;;3.42;;
43552;SDS011;29153;42.696;23.218;2022-12-13T01:06:17;6.75;;;2.83;;
43552;SDS011;29153;42.696;23.218;2022-12-13T01:08:43;7.92;;;3.40;;
43552;SDS011;29153;42.696;23.218;2022-12-13T01:13:39;8.28;;;3.55;;
43552;SDS011;29153;42.696;23.218;2022-12-13T01:16:08;10.35;;;3.98;;
43552;SDS011;29153;42.696;23.218;2022-12-13T01:18:37;9.05;;;3.27;;
43552;SDS011;29153;42.696;23.218;2022-12-13T01:21:09;7.22;;;3.30;;
43552;SDS011;29153;42.696;23.218;2022-12-13T01:23:39;8.28;;;3.58;;
43552;SDS011;29153;42.696;23.218;2022-12-13T01:28:36;7.12;;;3.12;;
43552;SDS011;29153;42.696;23.218;2022-12-13T01:31:12;7.90;;;3.30;;
43552;SDS011;29153;42.696;23.218;2022-12-13T01:33:41;8.45;;;3.47;;
43552;SDS011;29153;42.696;23.218;2022-12-13T01:36:13;9.20;;;3.90;;
43552;SDS011;29153;42.696;23.218;2022-12-13T01:38:42;9.40;;;3.77;;
43552;SDS011;29153;42.696;23.218;2022-12-13T01:41:17;11.33;;;4.83;;
43552;SDS011;29153;42.696;23.218;2022-12-13T01:46:16;8.23;;;3.85;;
43552;SDS011;29153;42.696;23.218;2022-12-13T01:48:50;14.33;;;4.47;;
43552;SDS011;29153;42.696;23.218;2022-12-13T01:51:19;10.75;;;4.42;;
43552;SDS011;29153;42.696;23.218;2022-12-13T01:53:49;8.78;;;3.50;;
43552;SDS011;29153;42.696;23.218;2022-12-13T01:56:20;8.25;;;3.60;;
43552;SDS011;29153;42.696;23.218;2022-12-13T01:58:49;7.65;;;3.40;;
43552;SDS011;29153;42.696;23.218;2022-12-13T02:01:19;9.75;;;3.67;;
43552;SDS011;29153;42.696;23.218;2022-12-13T02:03:47;8.93;;;3.50;;
43552;SDS011;29153;42.696;23.218;2022-12-13T02:06:20;8.48;;;3.92;;
43552;SDS011;29153;42.696;23.218;2022-12-13T02:08:48;9.10;;;4.12;;
43552;SDS011;29153;42.696;23.218;2022-12-13T02:11:18;8.35;;;4.08;;
43552;SDS011;29153;42.696;23.218;2022-12-13T02:13:49;8.93;;;3.58;;
43552;SDS011;29153;42.696;23.218;2022-12-13T02:16:23;10.53;;;3.98;;
43552;SDS011;29153;42.696;23.218;2022-12-13T02:19:07;10.85;;;4.22;;
43552;SDS011;29153;42.696;23.218;2022-12-13T02:27:29;9.70;;;4.25;;
43552;SDS011;29153;42.696;23.218;2022-12-13T02:33:07;6.60;;;2.65;;
43552;SDS011;29153;42.696;23.218;2022-12-13T02:46:17;6.25;;;2.47;;
43552;SDS011;29153;42.696;23.218;2022-12-13T02:48:47;7.65;;;2.80;;
43552;SDS011;29153;42.696;23.218;2022-12-13T02:51:18;8.38;;;3.02;;
43552;SDS011;29153;42.696;23.218;2022-12-13T02:53:47;6.25;;;3.08;;
43552;SDS011;29153;42.696;23.218;2022-12-13T02:56:15;8.65;;;3.60;;
43552;SDS011;29153;42.696;23.218;2022-12-13T02:58:44;6.53;;;3.00;;
43552;SDS011;29153;42.696;23.218;2022-12-13T03:07:09;6.60;;;2.62;;
43552;SDS011;29153;42.696;23.218;2022-12-13T03:12:18;6.03;;;2.60;;
43552;SDS011;29153;42.696;23.218;2022-12-13T03:17:53;6.30;;;2.60;;
43552;SDS011;29153;42.696;23.218;2022-12-13T03:20:25;6.62;;;2.45;;
43552;SDS011;29153;42.696;23.218;2022-12-13T03:22:54;6.50;;;2.22;;
43552;SDS011;29153;42.696;23.218;2022-12-13T03:25:25;7.00;;;2.37;;
43552;SDS011;29153;42.696;23.218;2022-12-13T03:27:54;4.72;;;2.10;;
43552;SDS011;29153;42.696;23.218;2022-12-13T03:30:21;5.47;;;2.30;;
43552;SDS011;29153;42.696;23.218;2022-12-13T03:32:49;5.65;;;2.00;;
43552;SDS011;29153;42.696;23.218;2022-12-13T03:35:16;5.40;;;2.62;;
43552;SDS011;29153;42.696;23.218;2022-12-13T03:37:44;5.08;;;2.00;;
43552;SDS011;29153;42.696;23.218;2022-12-13T03:40:12;4.92;;;2.50;;
43552;SDS011;29153;42.696;23.218;2022-12-13T03:42:40;6.55;;;2.17;;
43552;SDS011;29153;42.696;23.218;2022-12-13T03:45:07;5.35;;;1.77;;
43552;SDS011;29153;42.696;23.218;2022-12-13T03:47:35;5.60;;;2.27;;
43552;SDS011;29153;42.696;23.218;2022-12-13T03:50:03;6.35;;;2.12;;
43552;SDS011;29153;42.696;23.218;2022-12-13T03:52:31;6.33;;;2.37;;
43552;SDS011;29153;42.696;23.218;2022-12-13T03:54:58;7.97;;;3.05;;
43552;SDS011;29153;42.696;23.218;2022-12-13T03:57:26;7.08;;;2.62;;
43552;SDS011;29153;42.696;23.218;2022-12-13T03:59:53;6.15;;;2.08;;
43552;SDS011;29153;42.696;23.218;2022-12-13T04:02:21;7.35;;;2.27;;
43552;SDS011;29153;42.696;23.218;2022-12-13T04:04:49;6.03;;;2.20;;
43552;SDS011;29153;42.696;23.218;2022-12-13T04:07:16;5.58;;;2.50;;
43552;SDS011;29153;42.696;23.218;2022-12-13T04:09:44;7.22;;;2.67;;
43552;SDS011;29153;42.696;23.218;2022-12-13T04:12:11;4.65;;;1.77;;
43552;SDS011;29153;42.696;23.218;2022-12-13T04:14:57;5.78;;;2.27;;
43552;SDS011;29153;42.696;23.218;2022-12-13T04:17:24;8.80;;;2.50;;
43552;SDS011;29153;42.696;23.218;2022-12-13T04:19:52;7.08;;;2.35;;
43552;SDS011;29153;42.696;23.218;2022-12-13T04:22:20;6.42;;;2.20;;
43552;SDS011;29153;42.696;23.218;2022-12-13T04:24:47;7.85;;;1.77;;
43552;SDS011;29153;42.696;23.218;2022-12-13T04:27:15;6.67;;;2.30;;
43552;SDS011;29153;42.696;23.218;2022-12-13T04:29:42;6.25;;;2.50;;
43552;SDS011;29153;42.696;23.218;2022-12-13T04:32:10;5.72;;;2.10;;
43552;SDS011;29153;42.696;23.218;2022-12-13T04:34:37;6.47;;;2.37;;
43552;SDS011;29153;42.696;23.218;2022-12-13T04:37:05;5.85;;;2.20;;
43552;SDS011;29153;42.696;23.218;2022-12-13T04:39:32;5.75;;;2.22;;
43552;SDS011;29153;42.696;23.218;2022-12-13T04:42:00;5.08;;;1.92;;
43552;SDS011;29153;42.696;23.218;2022-12-13T04:44:29;8.13;;;2.67;;
43552;SDS011;29153;42.696;23.218;2022-12-13T04:46:56;6.12;;;2.17;;
43552;SDS011;29153;42.696;23.218;2022-12-13T04:49:24;6.95;;;2.77;;
43552;SDS011;29153;42.696;23.218;2022-12-13T04:51:52;6.65;;;2.80;;
43552;SDS011;29153;42.696;23.218;2022-12-13T04:54:19;11.05;;;3.10;;
43552;SDS011;29153;42.696;23.218;2022-12-13T04:56:47;9.23;;;4.05;;
43552;SDS011;29153;42.696;23.218;2022-12-13T04:59:15;7.97;;;3.17;;
43552;SDS011;29153;42.696;23.218;2022-12-13T05:01:43;7.83;;;3.20;;
43552;SDS011;29153;42.696;23.218;2022-12-13T05:04:10;8.45;;;3.77;;
43552;SDS011;29153;42.696;23.218;2022-12-13T05:06:38;9.55;;;3.52;;
43552;SDS011;29153;42.696;23.218;2022-12-13T05:09:05;9.35;;;4.20;;
43552;SDS011;29153;42.696;23.218;2022-12-13T05:11:33;8.03;;;3.27;;
43552;SDS011;29153;42.696;23.218;2022-12-13T05:14:00;10.75;;;4.12;;
43552;SDS011;29153;42.696;23.218;2022-12-13T05:16:28;9.35;;;4.10;;
43552;SDS011;29153;42.696;23.218;2022-12-13T05:18:56;9.93;;;3.92;;
43552;SDS011;29153;42.696;23.218;2022-12-13T05:21:23;7.80;;;3.50;;
43552;SDS011;29153;42.696;23.218;2022-12-13T05:23:51;8.60;;;3.80;;
43552;SDS011;29153;42.696;23.218;2022-12-13T05:26:18;9.98;;;4.20;;
43552;SDS011;29153;42.696;23.218;2022-12-13T05:28:46;11.70;;;5.00;;
43552;SDS011;29153;42.696;23.218;2022-12-13T05:31:13;10.90;;;4.35;;
43552;SDS011;29153;42.696;23.218;2022-12-13T05:33:41;8.10;;;3.80;;
43552;SDS011;29153;42.696;23.218;2022-12-13T05:36:09;10.08;;;4.10;;
43552;SDS011;29153;42.696;23.218;2022-12-13T05:38:36;10.10;;;4.20;;
43552;SDS011;29153;42.696;23.218;2022-12-13T05:41:08;9.53;;;4.20;;
43552;SDS011;29153;42.696;23.218;2022-12-13T05:43:37;11.20;;;4.80;;
43552;SDS011;29153;42.696;23.218;2022-12-13T05:46:05;10.15;;;4.72;;
43552;SDS011;29153;42.696;23.218;2022-12-13T05:48:32;10.08;;;4.60;;
43552;SDS011;29153;42.696;23.218;2022-12-13T05:51:00;9.93;;;5.47;;
43552;SDS011;29153;42.696;23.218;2022-12-13T05:53:27;12.95;;;6.60;;
43552;SDS011;29153;42.696;23.218;2022-12-13T05:55:58;9.78;;;4.42;;
43552;SDS011;29153;42.696;23.218;2022-12-13T05:58:27;15.48;;;4.75;;
43552;SDS011;29153;42.696;23.218;2022-12-13T06:01:02;12.07;;;5.00;;
43552;SDS011;29153;42.696;23.218;2022-12-13T06:03:34;12.30;;;5.00;;
43552;SDS011;29153;42.696;23.218;2022-12-13T06:06:06;12.13;;;5.60;;
43552;SDS011;29153;42.696;23.218;2022-12-13T06:08:35;9.33;;;4.47;;
43552;SDS011;29153;42.696;23.218;2022-12-13T06:11:03;11.20;;;4.35;;
43552;SDS011;29153;42.696;23.218;2022-12-13T06:13:32;9.80;;;4.58;;
43552;SDS011;29153;42.696;23.218;2022-12-13T06:16:00;9.43;;;4.28;;
43552;SDS011;29153;42.696;23.218;2022-12-13T06:18:30;10.05;;;3.95;;
43552;SDS011;29153;42.696;23.218;2022-12-13T06:21:00;12.18;;;4.70;;
43552;SDS011;29153;42.696;23.218;2022-12-13T06:23:30;10.78;;;4.55;;
43552;SDS011;29153;42.696;23.218;2022-12-13T06:28:27;13.75;;;4.83;;
43552;SDS011;29153;42.696;23.218;2022-12-13T06:30:57;12.23;;;4.87;;
43552;SDS011;29153;42.696;23.218;2022-12-13T06:33:25;10.72;;;4.83;;
43552;SDS011;29153;42.696;23.218;2022-12-13T06:35:56;9.10;;;4.37;;
43552;SDS011;29153;42.696;23.218;2022-12-13T06:38:24;12.93;;;5.65;;
43552;SDS011;29153;42.696;23.218;2022-12-13T06:40:52;13.72;;;6.53;;
43552;SDS011;29153;42.696;23.218;2022-12-13T06:43:19;11.73;;;5.62;;
43552;SDS011;29153;42.696;23.218;2022-12-13T06:45:47;12.85;;;6.28;;
43552;SDS011;29153;42.696;23.218;2022-12-13T06:48:15;17.70;;;6.42;;
43552;SDS011;29153;42.696;23.218;2022-12-13T06:50:42;16.60;;;8.38;;
43552;SDS011;29153;42.696;23.218;2022-12-13T06:53:10;15.78;;;7.67;;
43552;SDS011;29153;42.696;23.218;2022-12-13T06:55:37;12.95;;;5.80;;
43552;SDS011;29153;42.696;23.218;2022-12-13T06:58:05;12.73;;;6.17;;
43552;SDS011;29153;42.696;23.218;2022-12-13T07:00:32;14.03;;;6.45;;
43552;SDS011;29153;42.696;23.218;2022-12-13T07:03:00;12.28;;;5.92;;
43552;SDS011;29153;42.696;23.218;2022-12-13T07:05:28;15.45;;;5.67;;
43552;SDS011;29153;42.696;23.218;2022-12-13T07:08:01;20.62;;;6.42;;
43552;SDS011;29153;42.696;23.218;2022-12-13T07:10:27;13.95;;;6.12;;
43552;SDS011;29153;42.696;23.218;2022-12-13T07:12:55;15.83;;;6.10;;
43552;SDS011;29153;42.696;23.218;2022-12-13T07:15:22;13.83;;;5.95;;
43552;SDS011;29153;42.696;23.218;2022-12-13T07:17:50;17.75;;;6.42;;
43552;SDS011;29153;42.696;23.218;2022-12-13T07:20:19;14.18;;;5.22;;
43552;SDS011;29153;42.696;23.218;2022-12-13T07:22:50;15.10;;;5.45;;
43552;SDS011;29153;42.696;23.218;2022-12-13T07:25:19;12.82;;;5.53;;
43552;SDS011;29153;42.696;23.218;2022-12-13T07:27:54;12.85;;;5.35;;
43552;SDS011;29153;42.696;23.218;2022-12-13T07:30:17;10.40;;;4.35;;
43552;SDS011;29153;42.696;23.218;2022-12-13T07:32:50;15.50;;;5.47;;
43552;SDS011;29153;42.696;23.218;2022-12-13T07:35:16;15.95;;;6.95;;
43552;SDS011;29153;42.696;23.218;2022-12-13T07:37:44;18.62;;;8.20;;
43552;SDS011;29153;42.696;23.218;2022-12-13T07:40:16;11.83;;;5.05;;
43552;SDS011;29153;42.696;23.218;2022-12-13T07:42:50;11.75;;;4.50;;
43552;SDS011;29153;42.696;23.218;2022-12-13T07:45:18;10.10;;;4.17;;
43552;SDS011;29153;42.696;23.218;2022-12-13T07:47:47;13.78;;;4.92;;
43552;SDS011;29153;42.696;23.218;2022-12-13T07:50:15;12.78;;;5.55;;
43552;SDS011;29153;42.696;23.218;2022-12-13T07:52:44;17.60;;;7.12;;
43552;SDS011;29153;42.696;23.218;2022-12-13T07:55:13;12.40;;;5.62;;
43552;SDS011;29153;42.696;23.218;2022-12-13T07:57:42;14.15;;;6.12;;
43552;SDS011;29153;42.696;23.218;2022-12-13T08:00:10;12.58;;;6.30;;
43552;SDS011;29153;42.696;23.218;2022-12-13T08:02:39;13.50;;;6.40;;
43552;SDS011;29153;42.696;23.218;2022-12-13T08:05:07;23.65;;;9.20;;
43552;SDS011;29153;42.696;23.218;2022-12-13T08:07:35;18.85;;;7.47;;
43552;SDS011;29153;42.696;23.218;2022-12-13T08:10:02;15.55;;;6.62;;
43552;SDS011;29153;42.696;23.218;2022-12-13T08:12:30;13.25;;;6.00;;
43552;SDS011;29153;42.696;23.218;2022-12-13T08:14:58;15.68;;;5.70;;
43552;SDS011;29153;42.696;23.218;2022-12-13T08:17:26;13.28;;;5.92;;
43552;SDS011;29153;42.696;23.218;2022-12-13T08:19:53;14.58;;;6.65;;
43552;SDS011;29153;42.696;23.218;2022-12-13T08:22:22;17.17;;;6.92;;
43552;SDS011;29153;42.696;23.218;2022-12-13T08:24:51;13.45;;;5.95;;
43552;SDS011;29153;42.696;23.218;2022-12-13T08:27:20;14.15;;;5.80;;
43552;SDS011;29153;42.696;23.218;2022-12-13T08:29:49;14.73;;;6.17;;
43552;SDS011;29153;42.696;23.218;2022-12-13T08:32:16;21.68;;;8.80;;
43552;SDS011;29153;42.696;23.218;2022-12-13T08:34:44;18.20;;;7.15;;
43552;SDS011;29153;42.696;23.218;2022-12-13T08:37:12;24.37;;;12.73;;
43552;SDS011;29153;42.696;23.218;2022-12-13T08:39:41;20.35;;;8.90;;
43552;SDS011;29153;42.696;23.218;2022-12-13T08:42:11;14.65;;;6.70;;
43552;SDS011;29153;42.696;23.218;2022-12-13T08:44:42;13.32;;;6.12;;
43552;SDS011;29153;42.696;23.218;2022-12-13T08:47:10;27.82;;;10.32;;
43552;SDS011;29153;42.696;23.218;2022-12-13T08:49:38;15.78;;;6.70;;
43552;SDS011;29153;42.696;23.218;2022-12-13T08:52:06;14.05;;;5.55;;
43552;SDS011;29153;42.696;23.218;2022-12-13T08:54:33;18.12;;;6.87;;
43552;SDS011;29153;42.696;23.218;2022-12-13T08:57:01;11.35;;;4.83;;
43552;SDS011;29153;42.696;23.218;2022-12-13T08:59:29;12.40;;;5.25;;
43552;SDS011;29153;42.696;23.218;2022-12-13T09:01:56;12.23;;;4.85;;
43552;SDS011;29153;42.696;23.218;2022-12-13T09:04:25;9.75;;;4.28;;
43552;SDS011;29153;42.696;23.218;2022-12-13T09:06:53;14.65;;;5.40;;
43552;SDS011;29153;42.696;23.218;2022-12-13T09:09:20;13.50;;;6.22;;
43552;SDS011;29153;42.696;23.218;2022-12-13T09:11:48;9.40;;;4.90;;
43552;SDS011;29153;42.696;23.218;2022-12-13T09:14:15;10.00;;;4.12;;
43552;SDS011;29153;42.696;23.218;2022-12-13T09:16:43;11.93;;;5.45;;
43552;SDS011;29153;42.696;23.218;2022-12-13T09:19:10;10.90;;;4.65;;
43552;SDS011;29153;42.696;23.218;2022-12-13T09:21:38;9.20;;;4.00;;
43552;SDS011;29153;42.696;23.218;2022-12-13T09:24:05;8.33;;;4.37;;
43552;SDS011;29153;42.696;23.218;2022-12-13T09:26:33;8.13;;;3.20;;
43552;SDS011;29153;42.696;23.218;2022-12-13T09:29:00;8.60;;;3.67;;
43552;SDS011;29153;42.696;23.218;2022-12-13T09:31:28;10.30;;;4.87;;
43552;SDS011;29153;42.696;23.218;2022-12-13T09:33:57;10.58;;;5.05;;
43552;SDS011;29153;42.696;23.218;2022-12-13T09:36:25;10.18;;;3.72;;
43552;SDS011;29153;42.696;23.218;2022-12-13T09:38:52;10.15;;;3.15;;
43552;SDS011;29153;42.696;23.218;2022-12-13T09:43:58;9.08;;;2.72;;
43552;SDS011;29153;42.696;23.218;2022-12-13T09:46:37;12.10;;;4.85;;
43552;SDS011;29153;42.696;23.218;2022-12-13T09:49:10;7.53;;;3.47;;
43552;SDS011;29153;42.696;23.218;2022-12-13T09:51:40;9.15;;;3.98;;
43552;SDS011;29153;42.696;23.218;2022-12-13T09:54:10;8.50;;;3.62;;
43552;SDS011;29153;42.696;23.218;2022-12-13T09:56:40;10.90;;;5.10;;
43552;SDS011;29153;42.696;23.218;2022-12-13T09:59:16;9.33;;;3.45;;
43552;SDS011;29153;42.696;23.218;2022-12-13T10:01:42;11.20;;;4.67;;
43552;SDS011;29153;42.696;23.218;2022-12-13T10:04:12;14.80;;;6.35;;
43552;SDS011;29153;42.696;23.218;2022-12-13T10:09:08;6.03;;;2.90;;
43552;SDS011;29153;42.696;23.218;2022-12-13T10:11:44;22.80;;;9.45;;
43552;SDS011;29153;42.696;23.218;2022-12-13T10:14:16;8.98;;;3.62;;
43552;SDS011;29153;42.696;23.218;2022-12-13T10:16:48;8.15;;;4.08;;
43552;SDS011;29153;42.696;23.218;2022-12-13T10:19:22;9.13;;;3.90;;
43552;SDS011;29153;42.696;23.218;2022-12-13T10:21:54;18.62;;;8.03;;
43552;SDS011;29153;42.696;23.218;2022-12-13T10:24:22;10.08;;;3.95;;
43552;SDS011;29153;42.696;23.218;2022-12-13T10:26:53;8.13;;;4.42;;
43552;SDS011;29153;42.696;23.218;2022-12-13T10:29:25;10.48;;;4.20;;
43552;SDS011;29153;42.696;23.218;2022-12-13T10:31:52;11.35;;;5.35;;
43552;SDS011;29153;42.696;23.218;2022-12-13T10:34:27;7.40;;;3.00;;
43552;SDS011;29153;42.696;23.218;2022-12-13T10:36:57;9.70;;;3.55;;
43552;SDS011;29153;42.696;23.218;2022-12-13T10:39:38;8.93;;;3.55;;
43552;SDS011;29153;42.696;23.218;2022-12-13T10:42:11;16.07;;;6.47;;
43552;SDS011;29153;42.696;23.218;2022-12-13T10:44:40;15.08;;;5.97;;
43552;SDS011;29153;42.696;23.218;2022-12-13T10:49:53;12.05;;;4.92;;
43552;SDS011;29153;42.696;23.218;2022-12-13T10:52:29;14.03;;;5.92;;
43552;SDS011;29153;42.696;23.218;2022-12-13T10:55:06;7.30;;;3.58;;
43552;SDS011;29153;42.696;23.218;2022-12-13T10:57:48;15.75;;;5.72;;
43552;SDS011;29153;42.696;23.218;2022-12-13T11:00:30;12.28;;;5.03;;
43552;SDS011;29153;42.696;23.218;2022-12-13T11:03:30;9.78;;;3.50;;
43552;SDS011;29153;42.696;23.218;2022-12-13T11:06:03;10.00;;;4.03;;
43552;SDS011;29153;42.696;23.218;2022-12-13T11:08:42;10.82;;;4.08;;
43552;SDS011;29153;42.696;23.218;2022-12-13T11:11:10;9.83;;;3.83;;
43552;SDS011;29153;42.696;23.218;2022-12-13T11:13:50;16.95;;;6.97;;
43552;SDS011;29153;42.696;23.218;2022-12-13T11:18:55;9.95;;;3.98;;
43552;SDS011;29153;42.696;23.218;2022-12-13T11:21:28;9.08;;;3.65;;
43552;SDS011;29153;42.696;23.218;2022-12-13T11:24:04;9.33;;;4.12;;
43552;SDS011;29153;42.696;23.218;2022-12-13T11:26:30;10.68;;;4.08;;
43552;SDS011;29153;42.696;23.218;2022-12-13T11:34:34;12.80;;;4.40;;
43552;SDS011;29153;42.696;23.218;2022-12-13T11:37:07;7.53;;;3.17;;
43552;SDS011;29153;42.696;23.218;2022-12-13T11:45:19;8.75;;;3.47;;
43552;SDS011;29153;42.696;23.218;2022-12-13T11:48:02;21.65;;;6.58;;
43552;SDS011;29153;42.696;23.218;2022-12-13T11:50:39;8.20;;;3.60;;
43552;SDS011;29153;42.696;23.218;2022-12-13T11:56:26;8.93;;;3.12;;
43552;SDS011;29153;42.696;23.218;2022-12-13T12:05:23;8.50;;;3.75;;
43552;SDS011;29153;42.696;23.218;2022-12-13T12:07:44;12.55;;;5.42;;
43552;SDS011;29153;42.696;23.218;2022-12-13T12:10:28;7.90;;;3.20;;
43552;SDS011;29153;42.696;23.218;2022-12-13T12:13:02;7.55;;;3.25;;
43552;SDS011;29153;42.696;23.218;2022-12-13T12:15:39;7.12;;;2.77;;
43552;SDS011;29153;42.696;23.218;2022-12-13T12:18:12;7.15;;;3.33;;
43552;SDS011;29153;42.696;23.218;2022-12-13T12:26:13;8.45;;;3.62;;
43552;SDS011;29153;42.696;23.218;2022-12-13T12:31:34;8.73;;;3.20;;
43552;SDS011;29153;42.696;23.218;2022-12-13T12:36:53;18.85;;;8.33;;
43552;SDS011;29153;42.696;23.218;2022-12-13T12:39:32;9.00;;;3.58;;
43552;SDS011;29153;42.696;23.218;2022-12-13T12:47:09;8.50;;;3.15;;
43552;SDS011;29153;42.696;23.218;2022-12-13T12:52:38;7.40;;;3.35;;
43552;SDS011;29153;42.696;23.218;2022-12-13T12:55:26;6.08;;;2.90;;
43552;SDS011;29153;42.696;23.218;2022-12-13T13:03:36;5.35;;;2.40;;
43552;SDS011;29153;42.696;23.218;2022-12-13T13:06:14;6.58;;;2.75;;
43552;SDS011;29153;42.696;23.218;2022-12-13T13:11:13;7.67;;;2.98;;
43552;SDS011;29153;42.696;23.218;2022-12-13T13:16:29;7.40;;;3.35;;
43552;SDS011;29153;42.696;23.218;2022-12-13T13:18:59;7.28;;;2.62;;
43552;SDS011;29153;42.696;23.218;2022-12-13T13:21:44;8.78;;;3.40;;
43552;SDS011;29153;42.696;23.218;2022-12-13T13:24:18;8.90;;;3.27;;
43552;SDS011;29153;42.696;23.218;2022-12-13T13:29:37;8.08;;;3.52;;
43552;SDS011;29153;42.696;23.218;2022-12-13T13:34:43;14.58;;;6.33;;
43552;SDS011;29153;42.696;23.218;2022-12-13T13:42:28;12.75;;;5.67;;
43552;SDS011;29153;42.696;23.218;2022-12-13T13:47:53;11.15;;;4.37;;
43552;SDS011;29153;42.696;23.218;2022-12-13T13:50:22;8.63;;;4.22;;
43552;SDS011;29153;42.696;23.218;2022-12-13T13:53:12;8.15;;;3.67;;
43552;SDS011;29153;42.696;23.218;2022-12-13T14:04:28;12.82;;;5.60;;
43552;SDS011;29153;42.696;23.218;2022-12-13T14:20:57;17.87;;;7.47;;
43552;SDS011;29153;42.696;23.218;2022-12-13T14:26:11;13.78;;;6.20;;
43552;SDS011;29153;42.696;23.218;2022-12-13T14:28:57;14.58;;;6.53;;
43552;SDS011;29153;42.696;23.218;2022-12-13T14:31:30;17.90;;;7.28;;
43552;SDS011;29153;42.696;23.218;2022-12-13T14:34:03;16.77;;;7.33;;
43552;SDS011;29153;42.696;23.218;2022-12-13T14:36:33;19.73;;;8.40;;
43552;SDS011;29153;42.696;23.218;2022-12-13T14:39:04;17.32;;;8.13;;
43552;SDS011;29153;42.696;23.218;2022-12-13T14:41:45;16.50;;;8.08;;
43552;SDS011;29153;42.696;23.218;2022-12-13T14:44:35;20.32;;;8.43;;
43552;SDS011;29153;42.696;23.218;2022-12-13T14:46:51;14.63;;;6.78;;
43552;SDS011;29153;42.696;23.218;2022-12-13T14:49:22;18.30;;;7.37;;
43552;SDS011;29153;42.696;23.218;2022-12-13T14:51:53;23.05;;;9.35;;
43552;SDS011;29153;42.696;23.218;2022-12-13T14:54:24;17.40;;;7.83;;
43552;SDS011;29153;42.696;23.218;2022-12-13T14:59:21;12.90;;;6.67;;
43552;SDS011;29153;42.696;23.218;2022-12-13T15:01:53;12.35;;;6.30;;
43552;SDS011;29153;42.696;23.218;2022-12-13T15:06:58;13.35;;;5.53;;
43552;SDS011;29153;42.696;23.218;2022-12-13T15:09:33;14.95;;;5.45;;
43552;SDS011;29153;42.696;23.218;2022-12-13T15:12:01;12.45;;;5.20;;
43552;SDS011;29153;42.696;23.218;2022-12-13T15:14:34;11.48;;;5.55;;
43552;SDS011;29153;42.696;23.218;2022-12-13T15:17:05;11.30;;;4.92;;
43552;SDS011;29153;42.696;23.218;2022-12-13T15:22:03;9.88;;;4.15;;
43552;SDS011;29153;42.696;23.218;2022-12-13T15:24:35;15.38;;;6.87;;
43552;SDS011;29153;42.696;23.218;2022-12-13T15:27:05;25.68;;;16.48;;
43552;SDS011;29153;42.696;23.218;2022-12-13T15:29:34;24.90;;;13.38;;
43552;SDS011;29153;42.696;23.218;2022-12-13T15:32:02;18.70;;;10.10;;
43552;SDS011;29153;42.696;23.218;2022-12-13T15:34:34;14.38;;;7.12;;
43552;SDS011;29153;42.696;23.218;2022-12-13T15:39:41;10.82;;;4.05;;
43552;SDS011;29153;42.696;23.218;2022-12-13T15:42:18;11.50;;;5.00;;
43552;SDS011;29153;42.696;23.218;2022-12-13T15:44:50;12.28;;;5.10;;
43552;SDS011;29153;42.696;23.218;2022-12-13T15:47:23;12.13;;;4.95;;
43552;SDS011;29153;42.696;23.218;2022-12-13T15:50:05;12.43;;;5.25;;
43552;SDS011;29153;42.696;23.218;2022-12-13T15:52:32;12.18;;;5.62;;
43552;SDS011;29153;42.696;23.218;2022-12-13T15:57:46;10.70;;;5.45;;
43552;SDS011;29153;42.696;23.218;2022-12-13T16:00:19;11.63;;;5.42;;
43552;SDS011;29153;42.696;23.218;2022-12-13T16:02:54;9.48;;;4.78;;
43552;SDS011;29153;42.696;23.218;2022-12-13T16:05:27;9.58;;;4.80;;
43552;SDS011;29153;42.696;23.218;2022-12-13T16:08:01;9.48;;;4.55;;
43552;SDS011;29153;42.696;23.218;2022-12-13T16:10:27;10.50;;;4.50;;
43552;SDS011;29153;42.696;23.218;2022-12-13T16:12:56;10.85;;;4.60;;
43552;SDS011;29153;42.696;23.218;2022-12-13T16:15:26;10.58;;;4.83;;
43552;SDS011;29153;42.696;23.218;2022-12-13T16:18:06;13.85;;;5.20;;
43552;SDS011;29153;42.696;23.218;2022-12-13T16:20:52;11.63;;;4.80;;
43552;SDS011;29153;42.696;23.218;2022-12-13T16:23:20;13.78;;;6.22;;
43552;SDS011;29153;42.696;23.218;2022-12-13T16:25:48;13.85;;;5.22;;
43552;SDS011;29153;42.696;23.218;2022-12-13T16:28:16;12.63;;;5.58;;
43552;SDS011;29153;42.696;23.218;2022-12-13T16:33:23;13.90;;;6.40;;
43552;SDS011;29153;42.696;23.218;2022-12-13T16:35:52;14.80;;;6.17;;
43552;SDS011;29153;42.696;23.218;2022-12-13T16:38:20;15.58;;;6.55;;
43552;SDS011;29153;42.696;23.218;2022-12-13T16:40:49;13.75;;;6.30;;
43552;SDS011;29153;42.696;23.218;2022-12-13T16:43:20;16.65;;;6.55;;
43552;SDS011;29153;42.696;23.218;2022-12-13T16:45:51;18.35;;;7.92;;
43552;SDS011;29153;42.696;23.218;2022-12-13T16:48:21;24.85;;;9.83;;
43552;SDS011;29153;42.696;23.218;2022-12-13T16:50:49;23.05;;;9.30;;
43552;SDS011;29153;42.696;23.218;2022-12-13T16:53:18;24.70;;;10.35;;
43552;SDS011;29153;42.696;23.218;2022-12-13T16:55:46;29.70;;;10.75;;
43552;SDS011;29153;42.696;23.218;2022-12-13T16:58:14;24.60;;;10.50;;
43552;SDS011;29153;42.696;23.218;2022-12-13T17:00:44;22.67;;;10.13;;
43552;SDS011;29153;42.696;23.218;2022-12-13T17:03:12;24.55;;;10.28;;
43552;SDS011;29153;42.696;23.218;2022-12-13T17:05:41;21.60;;;7.95;;
43552;SDS011;29153;42.696;23.218;2022-12-13T17:08:13;21.23;;;8.85;;
43552;SDS011;29153;42.696;23.218;2022-12-13T17:10:42;23.52;;;9.73;;
43552;SDS011;29153;42.696;23.218;2022-12-13T17:13:10;24.35;;;10.60;;
43552;SDS011;29153;42.696;23.218;2022-12-13T17:15:37;19.15;;;9.43;;
43552;SDS011;29153;42.696;23.218;2022-12-13T17:18:05;18.80;;;8.05;;
43552;SDS011;29153;42.696;23.218;2022-12-13T17:20:33;16.97;;;8.25;;
43552;SDS011;29153;42.696;23.218;2022-12-13T17:23:01;15.90;;;8.58;;